createdAt,value
2023-02-09T00:01:22.885Z,21.60
2023-02-09T00:04:38.703Z,20.15
2023-02-09T00:07:40.601Z,17.77
2023-02-09T00:11:06.750Z,19.23
2023-02-09T00:14:23.693Z,27.30
2023-02-09T00:17:25.470Z,25.42
2023-02-09T00:24:06.775Z,24.77
2023-02-09T00:27:21.697Z,22.80
2023-02-09T00:34:21.301Z,19.95
2023-02-09T00:37:29.644Z,19.93
2023-02-09T00:41:10.717Z,25.37
2023-02-09T00:44:12.928Z,28.62
2023-02-09T00:47:27.770Z,24.92
2023-02-09T00:51:07.750Z,23.00
2023-02-09T00:54:25.040Z,19.98
2023-02-09T00:57:39.697Z,24.10
2023-02-09T01:01:06.249Z,22.80
2023-02-09T01:04:20.696Z,25.60
2023-02-09T01:07:25.500Z,26.77
2023-02-09T01:11:01.692Z,27.55
2023-02-09T01:14:10.726Z,30.48
2023-02-09T01:17:19.237Z,20.37
2023-02-09T01:21:05.653Z,27.90
2023-02-09T01:24:20.686Z,22.83
2023-02-09T01:27:29.891Z,26.80
2023-02-09T01:31:09.620Z,25.17
2023-02-09T01:34:24.101Z,23.67
2023-02-09T01:37:34.742Z,26.80
2023-02-09T01:41:03.720Z,21.77
2023-02-09T01:44:52.149Z,24.65
2023-02-09T01:48:09.789Z,25.05
2023-02-09T01:51:25.686Z,27.53
2023-02-09T01:54:41.145Z,18.40
2023-02-09T01:58:05.848Z,26.70
2023-02-09T02:01:14.748Z,29.20
2023-02-09T02:04:29.948Z,21.43
2023-02-09T02:07:53.900Z,24.60
2023-02-09T02:11:13.679Z,24.30
2023-02-09T02:14:30.414Z,30.43
2023-02-09T02:18:10.749Z,27.73
2023-02-09T02:21:46.272Z,27.48
2023-02-09T02:25:26.754Z,23.30
2023-02-09T02:28:53.667Z,26.30
2023-02-09T02:32:29.757Z,24.10
2023-02-09T02:35:57.231Z,29.02
2023-02-09T02:43:09.132Z,28.83
2023-02-09T02:46:41.954Z,23.50
2023-02-09T02:54:16.746Z,22.80
2023-02-09T02:57:38.681Z,21.65
2023-02-09T03:01:16.895Z,24.75
2023-02-09T03:04:27.811Z,24.17
2023-02-09T03:07:36.348Z,22.65
2023-02-09T03:11:16.228Z,18.75
2023-02-09T03:14:45.686Z,23.00
2023-02-09T03:18:26.823Z,18.67
2023-02-09T03:21:52.741Z,16.15
2023-02-09T03:25:30.730Z,21.33
2023-02-09T03:28:45.902Z,23.10
2023-02-09T03:32:01.740Z,23.70
2023-02-09T03:35:04.395Z,22.05
2023-02-09T03:38:20.927Z,22.77
2023-02-09T03:41:25.384Z,19.57
2023-02-09T03:44:42.777Z,23.10
2023-02-09T04:32:37.742Z,21.50
2023-02-09T04:35:46.455Z,20.27
2023-02-09T04:38:54.825Z,17.73
2023-02-09T04:42:09.665Z,23.53
2023-02-09T04:45:11.477Z,19.50
2023-02-09T04:48:34.687Z,20.40
2023-02-09T04:51:43.288Z,18.23
2023-02-09T04:55:00.696Z,18.42
2023-02-09T05:01:48.360Z,14.30
2023-02-09T05:05:05.957Z,22.02
2023-02-09T05:08:14.225Z,22.65
2023-02-09T05:11:25.494Z,19.02
2023-02-09T05:14:34.681Z,18.43
2023-02-09T05:17:45.825Z,21.25
2023-02-09T05:21:00.771Z,18.33
2023-02-09T05:24:03.895Z,27.20
2023-02-09T05:27:18.665Z,22.25
2023-02-09T05:31:01.601Z,19.60
2023-02-09T05:34:16.702Z,21.75
2023-02-09T05:37:20.646Z,23.15
2023-02-09T05:44:12.642Z,20.67
2023-02-09T05:47:27.950Z,19.30
2023-02-09T05:50:45.503Z,22.75
2023-02-09T05:54:14.166Z,20.27
2023-02-09T05:57:22.660Z,20.67
2023-02-09T06:00:53.409Z,18.20
2023-02-09T06:04:07.753Z,19.40
2023-02-09T06:07:16.240Z,23.15
2023-02-09T06:10:27.807Z,20.83
2023-02-09T06:13:46.729Z,17.80
2023-02-09T06:16:54.669Z,19.23
2023-02-09T06:23:46.672Z,19.00
2023-02-09T06:26:55.226Z,22.25
2023-02-09T06:30:06.532Z,31.37
2023-02-09T06:33:26.034Z,20.85
2023-02-09T06:36:27.717Z,26.55
2023-02-09T06:39:42.911Z,21.95
2023-02-09T06:42:47.868Z,22.25
2023-02-09T06:50:02.756Z,23.10
2023-02-09T07:00:52.730Z,24.25
2023-02-09T07:04:03.489Z,32.63
2023-02-09T07:07:18.886Z,26.10
2023-02-09T07:10:27.762Z,28.60
2023-02-09T07:13:37.201Z,23.75
2023-02-09T07:16:45.779Z,25.35
2023-02-09T07:20:00.929Z,29.40
2023-02-09T07:23:50.003Z,24.75
2023-02-09T07:27:07.149Z,21.27
2023-02-09T07:30:16.156Z,19.55
2023-02-09T07:33:35.703Z,29.55
2023-02-09T07:36:38.016Z,22.00
2023-02-09T07:39:53.037Z,22.80
2023-02-09T07:42:56.042Z,24.92
2023-02-09T07:46:13.781Z,21.15
2023-02-09T07:49:22.765Z,21.43
2023-02-09T07:52:31.463Z,23.25
2023-02-09T07:55:40.705Z,20.75
2023-02-09T07:59:15.612Z,23.20
2023-02-09T08:02:38.761Z,19.60
2023-02-09T08:09:49.993Z,22.77
2023-02-09T08:17:31.397Z,28.17
2023-02-09T08:27:51.876Z,22.40
2023-02-09T08:31:22.081Z,18.50
2023-02-09T08:34:44.693Z,22.08
2023-02-09T08:42:23.945Z,17.83
2023-02-09T08:50:13.890Z,25.15
2023-02-09T08:53:51.907Z,25.02
2023-02-09T09:01:37.726Z,23.05
2023-02-09T09:09:08.808Z,18.65
2023-02-09T09:28:07.996Z,28.30
2023-02-09T09:35:13.962Z,22.27
2023-02-09T09:38:27.121Z,21.33
2023-02-09T09:41:43.924Z,22.10
2023-02-09T09:45:26.078Z,24.75
2023-02-09T09:48:58.783Z,22.13
2023-02-09T09:52:40.112Z,23.62
2023-02-09T09:56:10.312Z,20.87
2023-02-09T09:59:48.114Z,24.50
2023-02-09T10:03:14.919Z,23.80
2023-02-09T10:07:08.745Z,27.40
2023-02-09T10:15:07.404Z,28.05
2023-02-09T10:18:22.117Z,24.35
2023-02-09T10:21:34.502Z,23.08
2023-02-09T10:24:56.731Z,26.98
2023-02-09T10:28:28.867Z,25.53
2023-02-09T10:31:47.654Z,23.15
2023-02-09T10:35:05.869Z,26.62
2023-02-09T10:38:20.133Z,18.92
2023-02-09T10:41:39.214Z,18.90
2023-02-09T10:44:48.237Z,25.33
2023-02-09T10:48:03.244Z,24.35
2023-02-09T10:51:23.770Z,28.12
2023-02-09T10:54:26.494Z,24.25
2023-02-09T10:57:45.732Z,27.80
2023-02-09T11:01:06.557Z,23.07
2023-02-09T11:08:30.882Z,24.17
2023-02-09T11:11:41.770Z,22.23
2023-02-09T11:14:56.518Z,17.60
2023-02-09T11:18:17.430Z,16.23
2023-02-09T11:22:01.924Z,18.87
2023-02-09T11:25:43.778Z,21.67
2023-02-09T11:33:51.740Z,15.40
2023-02-09T11:41:10.696Z,20.25
2023-02-09T11:48:11.834Z,22.33
2023-02-09T11:51:31.888Z,15.43
2023-02-09T11:55:02.623Z,16.83
2023-02-09T11:58:41.817Z,15.18
2023-02-09T12:29:07.934Z,16.67
2023-02-09T12:32:34.561Z,15.88
2023-02-09T12:36:35.642Z,24.67
2023-02-09T12:43:46.241Z,12.48
2023-02-09T12:47:03.704Z,19.00
2023-02-09T12:51:27.230Z,20.58
2023-02-09T12:54:50.543Z,22.75
2023-02-09T12:57:58.738Z,19.95
2023-02-09T13:01:16.887Z,19.83
2023-02-09T13:04:31.459Z,19.73
2023-02-09T13:16:44.295Z,23.05
2023-02-09T13:28:20.828Z,16.60
2023-02-09T13:31:51.032Z,18.02
2023-02-09T13:39:15.912Z,20.17
2023-02-09T13:46:40.291Z,16.75
2023-02-09T14:14:38.865Z,19.95
2023-02-09T14:17:59.850Z,18.30
2023-02-09T14:21:52.972Z,17.87
2023-02-09T14:24:55.048Z,14.43
2023-02-09T14:28:09.963Z,19.52
2023-02-09T14:31:28.706Z,19.23
2023-02-09T14:34:45.767Z,15.88
2023-02-09T14:38:03.002Z,15.73
2023-02-09T14:41:42.652Z,17.85
2023-02-09T14:44:56.681Z,15.45
2023-02-09T14:48:23.893Z,11.50
2023-02-09T14:51:51.222Z,14.87
2023-02-09T14:55:12.027Z,15.90
2023-02-09T15:02:35.856Z,19.55
2023-02-09T15:05:51.824Z,16.98
2023-02-09T15:09:07.981Z,18.70
2023-02-09T15:12:29.753Z,14.80
2023-02-09T15:16:00.846Z,17.08
2023-02-09T15:19:09.782Z,21.27
2023-02-09T15:22:19.398Z,18.05
2023-02-09T15:25:29.808Z,15.82
2023-02-09T15:28:45.747Z,21.73
2023-02-09T15:31:50.658Z,16.92
2023-02-09T15:35:05.754Z,16.70
2023-02-09T15:38:11.114Z,17.83
2023-02-09T15:41:25.781Z,17.30
2023-02-09T15:49:15.832Z,17.00
2023-02-09T15:52:25.195Z,16.27
2023-02-09T15:55:41.789Z,18.02
2023-02-09T15:58:51.138Z,20.73
2023-02-09T16:02:00.347Z,22.33
2023-02-09T16:05:08.762Z,23.27
2023-02-09T16:08:28.762Z,22.40
2023-02-09T16:11:46.757Z,21.27
2023-02-09T16:18:36.798Z,20.20
2023-02-09T16:21:56.822Z,20.77
2023-02-09T16:25:05.512Z,18.67
2023-02-09T16:28:17.902Z,19.90
2023-02-09T16:31:41.496Z,19.30
2023-02-09T16:35:29.289Z,22.70
2023-02-09T16:38:43.738Z,17.77
2023-02-09T16:41:52.260Z,20.73
2023-02-09T16:45:07.826Z,26.23
2023-02-09T16:48:19.197Z,28.33
2023-02-09T16:59:01.799Z,21.75
2023-02-09T17:05:44.004Z,21.00
2023-02-09T17:08:59.262Z,23.83
2023-02-09T17:12:07.762Z,23.58
2023-02-09T17:18:48.730Z,18.90
2023-02-09T17:22:03.766Z,22.30
2023-02-09T17:25:20.816Z,22.48
2023-02-09T17:28:36.746Z,23.05
2023-02-09T17:31:53.261Z,20.33
2023-02-09T17:35:02.760Z,20.75
2023-02-09T17:38:21.671Z,20.37
2023-02-09T17:45:27.819Z,24.33
2023-02-09T17:48:36.833Z,29.10
2023-02-09T17:51:53.790Z,21.83
2023-02-09T17:54:59.415Z,20.52
2023-02-09T17:58:34.826Z,24.75
2023-02-09T18:01:48.855Z,36.80
2023-02-09T18:09:19.866Z,25.73
2023-02-09T18:12:34.981Z,29.30
2023-02-09T18:15:43.973Z,21.33
2023-02-09T18:19:22.879Z,28.67
2023-02-09T18:22:25.402Z,27.02
2023-02-09T18:25:42.796Z,29.47
2023-02-09T18:29:23.770Z,27.37
2023-02-09T18:32:32.789Z,29.92
2023-02-09T18:35:50.867Z,26.27
2023-02-09T18:38:52.622Z,26.90
2023-02-09T18:49:43.885Z,28.73
2023-02-09T18:53:08.776Z,27.93
2023-02-09T18:56:19.800Z,24.37
2023-02-09T18:59:37.800Z,25.42
2023-02-09T19:02:46.921Z,25.60
2023-02-09T19:06:08.823Z,28.85
2023-02-09T19:09:24.877Z,28.42
2023-02-09T19:12:44.818Z,27.23
2023-02-09T19:15:47.179Z,28.17
2023-02-09T19:19:02.774Z,29.83
2023-02-09T19:22:05.430Z,32.25
2023-02-09T19:25:21.764Z,35.58
2023-02-09T19:28:23.879Z,27.55
2023-02-09T19:31:38.777Z,40.00
2023-02-09T19:34:48.868Z,30.20
2023-02-09T19:42:41.800Z,29.57
2023-02-09T19:46:06.892Z,27.95
2023-02-09T19:49:22.902Z,33.67
2023-02-09T19:52:31.182Z,30.50
2023-02-09T19:55:46.029Z,34.13
2023-02-09T19:58:55.758Z,30.73
2023-02-09T20:02:12.096Z,29.48
2023-02-09T20:06:16.176Z,40.65
2023-02-09T20:09:24.805Z,32.67
2023-02-09T20:12:33.880Z,36.28
2023-02-09T20:15:44.048Z,32.63
2023-02-09T20:18:52.768Z,38.10
2023-02-09T20:22:07.757Z,40.50
2023-02-09T20:25:10.400Z,28.45
2023-02-09T20:32:16.797Z,33.38
2023-02-09T20:36:13.051Z,34.37
2023-02-09T20:39:30.137Z,36.80
2023-02-09T20:46:39.752Z,44.25
2023-02-09T20:49:55.812Z,34.50
2023-02-09T20:53:11.214Z,39.63
2023-02-09T20:56:25.829Z,40.47
2023-02-09T20:59:41.046Z,40.15
2023-02-09T21:02:49.843Z,42.13
2023-02-09T21:06:00.623Z,40.00
2023-02-09T21:09:30.827Z,37.28
2023-02-09T21:12:40.824Z,39.17
2023-02-09T21:15:49.826Z,39.53
2023-02-09T21:19:26.916Z,39.83
2023-02-09T21:22:29.137Z,35.15
2023-02-09T21:25:46.872Z,43.57
2023-02-09T21:28:56.881Z,34.13
2023-02-09T21:32:06.748Z,33.35
2023-02-09T21:35:21.780Z,43.43
2023-02-09T21:46:39.011Z,42.33
2023-02-09T21:49:54.853Z,41.77
2023-02-09T21:53:16.957Z,36.80
2023-02-09T21:56:19.043Z,36.58
2023-02-09T21:59:33.866Z,34.37
2023-02-09T22:02:35.689Z,39.80
2023-02-09T22:05:50.834Z,40.33
2023-02-09T22:08:52.771Z,37.42
2023-02-09T22:12:07.837Z,39.00
2023-02-09T22:15:16.760Z,34.53
2023-02-09T22:18:32.801Z,35.00
2023-02-09T22:21:34.886Z,30.43
2023-02-09T22:24:49.837Z,40.33
2023-02-09T22:27:51.769Z,37.60
2023-02-09T22:31:17.831Z,33.75
2023-02-09T22:34:32.751Z,39.83
2023-02-09T22:37:34.484Z,31.50
2023-02-09T22:40:49.924Z,45.70
2023-02-09T22:44:01.766Z,37.93
2023-02-09T22:47:10.383Z,39.67
2023-02-09T22:50:19.066Z,32.78
2023-02-09T22:53:34.330Z,37.93
2023-02-09T22:56:48.853Z,36.42
2023-02-09T22:59:56.784Z,33.72
2023-02-09T23:03:05.602Z,29.15
2023-02-09T23:06:17.767Z,37.67
2023-02-09T23:09:26.956Z,42.25
2023-02-09T23:12:42.833Z,32.80
2023-02-09T23:15:44.709Z,37.77
2023-02-09T23:19:03.806Z,34.97
2023-02-09T23:22:18.792Z,28.98
2023-02-09T23:25:20.947Z,43.23
2023-02-09T23:28:35.792Z,41.45
2023-02-09T23:31:38.201Z,34.15
2023-02-09T23:34:52.837Z,36.25
2023-02-09T23:38:00.783Z,33.47
2023-02-09T23:41:18.801Z,43.63
2023-02-09T23:44:20.937Z,34.97
2023-02-09T23:47:35.834Z,34.47
2023-02-09T23:50:43.814Z,36.55
2023-02-09T23:53:57.854Z,37.22
2023-02-09T23:57:09.031Z,36.33
